sensor_id;sensor_type;location;lat;lon;timestamp;pressure;altitude;pressure_sealevel;temperature;humidity
15670;BME280;18524;45.190;5.732;2023-02-12T00:00:49;101061.50;;;4.13;71.01
15670;BME280;18524;45.190;5.732;2023-02-12T00:05:40;101059.53;;;4.23;69.93
15670;BME280;18524;45.190;5.732;2023-02-12T00:10:31;101049.22;;;4.20;70.17
15670;BME280;18524;45.190;5.732;2023-02-12T00:15:21;101044.63;;;4.31;68.94
15670;BME280;18524;45.190;5.732;2023-02-12T00:20:12;101039.53;;;4.26;69.90
15670;BME280;18524;45.190;5.732;2023-02-12T00:25:03;101044.81;;;4.23;69.84
15670;BME280;18524;45.190;5.732;2023-02-12T00:29:53;101042.31;;;4.19;70.19
15670;BME280;18524;45.190;5.732;2023-02-12T00:34:45;101042.47;;;4.13;70.30
15670;BME280;18524;45.190;5.732;2023-02-12T00:39:36;101053.50;;;3.84;71.81
15670;BME280;18524;45.190;5.732;2023-02-12T00:44:27;101054.00;;;3.61;72.96
15670;BME280;18524;45.190;5.732;2023-02-12T00:49:17;101050.97;;;3.40;74.11
15670;BME280;18524;45.190;5.732;2023-02-12T00:54:09;101044.84;;;3.44;74.86
15670;BME280;18524;45.190;5.732;2023-02-12T00:58:59;101040.34;;;3.53;73.15
15670;BME280;18524;45.190;5.732;2023-02-12T01:03:50;101045.78;;;3.40;73.23
15670;BME280;18524;45.190;5.732;2023-02-12T01:08:40;101050.47;;;3.22;73.85
15670;BME280;18524;45.190;5.732;2023-02-12T01:13:31;101041.72;;;3.27;73.97
15670;BME280;18524;45.190;5.732;2023-02-12T01:18:22;101041.16;;;3.13;74.99
15670;BME280;18524;45.190;5.732;2023-02-12T01:23:12;101042.38;;;2.94;75.61
15670;BME280;18524;45.190;5.732;2023-02-12T01:28:03;101047.22;;;3.12;75.07
15670;BME280;18524;45.190;5.732;2023-02-12T01:32:53;101053.34;;;3.08;75.17
15670;BME280;18524;45.190;5.732;2023-02-12T01:37:44;101046.19;;;3.21;74.18
15670;BME280;18524;45.190;5.732;2023-02-12T01:42:35;101051.63;;;3.08;74.84
15670;BME280;18524;45.190;5.732;2023-02-12T01:47:25;101049.25;;;2.95;74.92
15670;BME280;18524;45.190;5.732;2023-02-12T01:52:16;101044.75;;;3.06;74.58
15670;BME280;18524;45.190;5.732;2023-02-12T01:57:10;101044.75;;;3.06;74.06
15670;BME280;18524;45.190;5.732;2023-02-12T02:02:03;101044.91;;;2.97;73.77
15670;BME280;18524;45.190;5.732;2023-02-12T02:06:59;101044.94;;;2.95;74.39
15670;BME280;18524;45.190;5.732;2023-02-12T02:11:50;101037.41;;;2.83;74.54
15670;BME280;18524;45.190;5.732;2023-02-12T02:27:40;101038.28;;;2.33;77.28
15670;BME280;18524;45.190;5.732;2023-02-12T02:32:57;101035.84;;;2.24;78.16
15670;BME280;18524;45.190;5.732;2023-02-12T02:43:01;101032.41;;;2.20;79.35
15670;BME280;18524;45.190;5.732;2023-02-12T02:48:12;101029.81;;;2.23;78.94
15670;BME280;18524;45.190;5.732;2023-02-12T02:53:09;101037.50;;;2.28;78.88
15670;BME280;18524;45.190;5.732;2023-02-12T02:58:22;101032.78;;;1.99;80.07
15670;BME280;18524;45.190;5.732;2023-02-12T03:03:25;101011.84;;;2.12;78.74
15670;BME280;18524;45.190;5.732;2023-02-12T03:08:31;101010.19;;;2.08;79.59
15670;BME280;18524;45.190;5.732;2023-02-12T03:13:29;101002.22;;;2.20;79.71
15670;BME280;18524;45.190;5.732;2023-02-12T03:18:26;100999.59;;;2.24;79.42
15670;BME280;18524;45.190;5.732;2023-02-12T03:23:23;101003.91;;;2.25;79.21
15670;BME280;18524;45.190;5.732;2023-02-12T03:28:18;101004.09;;;2.12;80.43
15670;BME280;18524;45.190;5.732;2023-02-12T03:33:15;101001.66;;;2.03;81.12
15670;BME280;18524;45.190;5.732;2023-02-12T03:38:21;101021.53;;;2.00;81.42
15670;BME280;18524;45.190;5.732;2023-02-12T03:43:31;101024.97;;;2.02;80.58
15670;BME280;18524;45.190;5.732;2023-02-12T03:53:17;101023.84;;;2.16;80.84
15670;BME280;18524;45.190;5.732;2023-02-12T03:58:09;101025.63;;;2.14;80.39
15670;BME280;18524;45.190;5.732;2023-02-12T04:03:03;101031.66;;;2.13;79.05
15670;BME280;18524;45.190;5.732;2023-02-12T04:07:56;101032.56;;;2.12;79.08
15670;BME280;18524;45.190;5.732;2023-02-12T04:12:54;101032.59;;;2.09;80.01
15670;BME280;18524;45.190;5.732;2023-02-12T04:27:56;101026.09;;;1.82;80.56
15670;BME280;18524;45.190;5.732;2023-02-12T04:32:52;101022.47;;;1.96;80.38
15670;BME280;18524;45.190;5.732;2023-02-12T04:37:50;101021.69;;;1.91;80.79
15670;BME280;18524;45.190;5.732;2023-02-12T04:42:48;101023.47;;;1.87;80.82
15670;BME280;18524;45.190;5.732;2023-02-12T04:47:39;101018.34;;;1.81;80.84
15670;BME280;18524;45.190;5.732;2023-02-12T04:52:29;101015.97;;;1.69;80.98
15670;BME280;18524;45.190;5.732;2023-02-12T04:57:19;101020.88;;;1.87;80.53
15670;BME280;18524;45.190;5.732;2023-02-12T05:02:10;101026.94;;;1.83;80.56
15670;BME280;18524;45.190;5.732;2023-02-12T05:07:00;101022.44;;;1.97;80.96
15670;BME280;18524;45.190;5.732;2023-02-12T05:11:51;101025.41;;;1.71;81.59
15670;BME280;18524;45.190;5.732;2023-02-12T05:16:41;101028.81;;;1.75;81.77
15670;BME280;18524;45.190;5.732;2023-02-12T05:21:32;101032.41;;;1.65;82.76
15670;BME280;18524;45.190;5.732;2023-02-12T05:26:22;101031.44;;;1.70;82.91
15670;BME280;18524;45.190;5.732;2023-02-12T05:31:16;101028.34;;;1.44;83.74
15670;BME280;18524;45.190;5.732;2023-02-12T05:36:10;101028.50;;;1.33;84.29
15670;BME280;18524;45.190;5.732;2023-02-12T05:41:06;101032.69;;;1.42;84.17
15670;BME280;18524;45.190;5.732;2023-02-12T05:46:00;101033.41;;;1.54;83.83
15670;BME280;18524;45.190;5.732;2023-02-12T05:50:51;101038.63;;;1.48;82.42
15670;BME280;18524;45.190;5.732;2023-02-12T05:55:41;101044.50;;;1.63;82.06
15670;BME280;18524;45.190;5.732;2023-02-12T06:00:32;101043.66;;;1.61;81.95
15670;BME280;18524;45.190;5.732;2023-02-12T06:05:22;101049.50;;;1.73;80.76
15670;BME280;18524;45.190;5.732;2023-02-12T06:10:12;101054.94;;;1.55;81.66
15670;BME280;18524;45.190;5.732;2023-02-12T06:15:03;101062.00;;;1.39;82.96
15670;BME280;18524;45.190;5.732;2023-02-12T06:19:53;101045.28;;;1.68;81.16
15670;BME280;18524;45.190;5.732;2023-02-12T06:24:44;101045.47;;;1.54;81.87
15670;BME280;18524;45.190;5.732;2023-02-12T06:29:34;101052.44;;;1.47;82.89
15670;BME280;18524;45.190;5.732;2023-02-12T06:34:24;101055.13;;;1.40;83.03
15670;BME280;18524;45.190;5.732;2023-02-12T06:39:16;101051.53;;;1.51;82.65
15670;BME280;18524;45.190;5.732;2023-02-12T06:44:06;101045.50;;;1.52;82.74
15670;BME280;18524;45.190;5.732;2023-02-12T06:48:59;101037.94;;;1.36;84.29
15670;BME280;18524;45.190;5.732;2023-02-12T06:53:50;101045.81;;;1.25;84.50
15670;BME280;18524;45.190;5.732;2023-02-12T06:58:43;101043.56;;;1.68;83.34
15670;BME280;18524;45.190;5.732;2023-02-12T07:03:34;101063.38;;;1.68;82.32
15670;BME280;18524;45.190;5.732;2023-02-12T07:08:25;101052.13;;;1.72;82.49
15670;BME280;18524;45.190;5.732;2023-02-12T07:13:16;101059.84;;;1.75;82.29
15670;BME280;18524;45.190;5.732;2023-02-12T07:18:06;101064.06;;;1.80;81.82
15670;BME280;18524;45.190;5.732;2023-02-12T07:22:56;101055.72;;;1.62;83.07
15670;BME280;18524;45.190;5.732;2023-02-12T07:27:47;101069.66;;;1.48;83.35
15670;BME280;18524;45.190;5.732;2023-02-12T07:32:37;101058.25;;;1.66;82.67
15670;BME280;18524;45.190;5.732;2023-02-12T07:37:28;101056.44;;;1.71;83.07
15670;BME280;18524;45.190;5.732;2023-02-12T07:42:18;101055.16;;;2.01;80.90
15670;BME280;18524;45.190;5.732;2023-02-12T07:47:08;101052.88;;;2.37;79.18
15670;BME280;18524;45.190;5.732;2023-02-12T07:51:59;101055.00;;;2.66;77.67
15670;BME280;18524;45.190;5.732;2023-02-12T07:56:49;101058.97;;;2.83;77.75
15670;BME280;18524;45.190;5.732;2023-02-12T08:01:45;101062.63;;;3.20;75.31
15670;BME280;18524;45.190;5.732;2023-02-12T08:06:45;101060.97;;;3.16;75.25
15670;BME280;18524;45.190;5.732;2023-02-12T08:11:38;101061.13;;;3.51;72.55
15670;BME280;18524;45.190;5.732;2023-02-12T08:16:30;101063.31;;;3.69;70.40
15670;BME280;18524;45.190;5.732;2023-02-12T08:21:26;101061.63;;;4.07;69.32
15670;BME280;18524;45.190;5.732;2023-02-12T08:26:26;101062.31;;;4.15;69.02
15670;BME280;18524;45.190;5.732;2023-02-12T08:31:20;101059.84;;;4.46;67.96
15670;BME280;18524;45.190;5.732;2023-02-12T08:36:14;101059.69;;;4.52;67.46
15670;BME280;18524;45.190;5.732;2023-02-12T08:41:16;101050.16;;;4.53;66.84
15670;BME280;18524;45.190;5.732;2023-02-12T08:46:10;101057.94;;;4.87;64.25
15670;BME280;18524;45.190;5.732;2023-02-12T08:55:55;101056.81;;;5.28;63.01
15670;BME280;18524;45.190;5.732;2023-02-12T09:00:45;101067.94;;;5.33;62.19
15670;BME280;18524;45.190;5.732;2023-02-12T09:05:39;101060.72;;;5.43;61.87
15670;BME280;18524;45.190;5.732;2023-02-12T09:10:30;101057.41;;;5.67;60.79
15670;BME280;18524;45.190;5.732;2023-02-12T09:15:20;101050.31;;;6.02;59.53
15670;BME280;18524;45.190;5.732;2023-02-12T09:20:11;101057.03;;;6.09;59.56
15670;BME280;18524;45.190;5.732;2023-02-12T09:25:01;101042.91;;;6.16;56.97
15670;BME280;18524;45.190;5.732;2023-02-12T09:29:52;101037.00;;;6.11;58.14
15670;BME280;18524;45.190;5.732;2023-02-12T09:34:42;101035.44;;;6.32;57.61
15670;BME280;18524;45.190;5.732;2023-02-12T09:39:33;101033.19;;;6.74;56.13
15670;BME280;18524;45.190;5.732;2023-02-12T09:44:28;101032.53;;;6.92;55.00
15670;BME280;18524;45.190;5.732;2023-02-12T09:49:48;101032.00;;;7.07;53.49
15670;BME280;18524;45.190;5.732;2023-02-12T09:54:39;101015.41;;;7.10;52.62
15670;BME280;18524;45.190;5.732;2023-02-12T09:59:30;101012.38;;;7.20;52.43
15670;BME280;18524;45.190;5.732;2023-02-12T10:04:23;101003.50;;;7.71;50.85
15670;BME280;18524;45.190;5.732;2023-02-12T10:09:57;101002.72;;;7.91;50.14
15670;BME280;18524;45.190;5.732;2023-02-12T10:20:14;100982.88;;;8.29;47.62
15670;BME280;18524;45.190;5.732;2023-02-12T10:25:29;100972.00;;;8.60;47.55
15670;BME280;18524;45.190;5.732;2023-02-12T10:30:38;100971.81;;;8.65;46.86
15670;BME280;18524;45.190;5.732;2023-02-12T10:35:30;100963.72;;;8.90;45.92
15670;BME280;18524;45.190;5.732;2023-02-12T10:40:27;100958.81;;;9.21;44.83
15670;BME280;18524;45.190;5.732;2023-02-12T10:45:21;100962.22;;;9.42;44.40
15670;BME280;18524;45.190;5.732;2023-02-12T10:50:40;100954.50;;;9.39;43.37
15670;BME280;18524;45.190;5.732;2023-02-12T10:55:33;100932.81;;;9.73;43.34
15670;BME280;18524;45.190;5.732;2023-02-12T11:00:34;100938.69;;;9.95;43.50
15670;BME280;18524;45.190;5.732;2023-02-12T11:05:28;100932.97;;;10.23;43.85
15670;BME280;18524;45.190;5.732;2023-02-12T11:15:23;100908.31;;;10.60;42.21
15670;BME280;18524;45.190;5.732;2023-02-12T11:25:15;100893.31;;;10.80;42.71
15670;BME280;18524;45.190;5.732;2023-02-12T11:35:12;100870.88;;;11.37;41.74
15670;BME280;18524;45.190;5.732;2023-02-12T11:40:03;100872.56;;;11.38;40.91
15670;BME280;18524;45.190;5.732;2023-02-12T11:44:56;100864.16;;;11.47;41.23
15670;BME280;18524;45.190;5.732;2023-02-12T11:54:54;100846.13;;;11.87;40.61
15670;BME280;18524;45.190;5.732;2023-02-12T11:59:47;100840.63;;;11.92;39.68
15670;BME280;18524;45.190;5.732;2023-02-12T12:04:39;100835.19;;;11.95;40.53
15670;BME280;18524;45.190;5.732;2023-02-12T12:09:40;100821.59;;;12.16;39.39
15670;BME280;18524;45.190;5.732;2023-02-12T12:14:47;100813.72;;;12.16;39.47
15670;BME280;18524;45.190;5.732;2023-02-12T12:20:08;100800.94;;;12.25;39.31
15670;BME280;18524;45.190;5.732;2023-02-12T12:29:59;100775.47;;;12.39;38.68
15670;BME280;18524;45.190;5.732;2023-02-12T12:34:55;100773.19;;;12.62;38.38
15670;BME280;18524;45.190;5.732;2023-02-12T13:01:19;100751.13;;;12.50;38.91
15670;BME280;18524;45.190;5.732;2023-02-12T13:22:01;100728.06;;;12.68;38.38
15670;BME280;18524;45.190;5.732;2023-02-12T13:27:01;100724.63;;;12.53;38.54
15670;BME280;18524;45.190;5.732;2023-02-12T13:32:10;100714.03;;;12.40;38.15
15670;BME280;18524;45.190;5.732;2023-02-12T13:37:04;100708.63;;;12.56;38.21
15670;BME280;18524;45.190;5.732;2023-02-12T13:42:35;100703.41;;;12.42;38.54
15670;BME280;18524;45.190;5.732;2023-02-12T13:47:51;100704.38;;;12.27;38.21
15670;BME280;18524;45.190;5.732;2023-02-12T13:52:55;100700.41;;;12.34;38.47
15670;BME280;18524;45.190;5.732;2023-02-12T14:03:15;100694.56;;;12.43;38.72
15670;BME280;18524;45.190;5.732;2023-02-12T14:08:32;100696.75;;;12.36;38.46
15670;BME280;18524;45.190;5.732;2023-02-12T14:13:24;100692.00;;;12.56;38.45
15670;BME280;18524;45.190;5.732;2023-02-12T14:23:25;100697.06;;;12.59;39.36
15670;BME280;18524;45.190;5.732;2023-02-12T14:28:38;100703.53;;;12.67;39.43
15670;BME280;18524;45.190;5.732;2023-02-12T14:33:31;100704.50;;;12.66;39.63
15670;BME280;18524;45.190;5.732;2023-02-12T14:53:42;100691.88;;;12.57;40.39
15670;BME280;18524;45.190;5.732;2023-02-12T14:58:36;100690.84;;;12.60;40.43
15670;BME280;18524;45.190;5.732;2023-02-12T15:03:40;100693.00;;;12.67;40.30
15670;BME280;18524;45.190;5.732;2023-02-12T15:19:13;100682.19;;;12.72;39.00
15670;BME280;18524;45.190;5.732;2023-02-12T15:24:12;100691.41;;;12.65;39.28
15670;BME280;18524;45.190;5.732;2023-02-12T15:29:03;100696.38;;;12.69;38.49
15670;BME280;18524;45.190;5.732;2023-02-12T15:33:55;100691.97;;;12.70;37.70
15670;BME280;18524;45.190;5.732;2023-02-12T15:38:55;100687.94;;;12.64;38.07
15670;BME280;18524;45.190;5.732;2023-02-12T15:43:46;100687.84;;;12.66;37.76
15670;BME280;18524;45.190;5.732;2023-02-12T15:48:36;100686.94;;;12.79;37.56
15670;BME280;18524;45.190;5.732;2023-02-12T15:53:28;100684.41;;;12.78;37.29
15670;BME280;18524;45.190;5.732;2023-02-12T15:58:27;100681.25;;;12.59;37.76
15670;BME280;18524;45.190;5.732;2023-02-12T16:03:31;100679.97;;;12.51;38.54
15670;BME280;18524;45.190;5.732;2023-02-12T16:08:22;100685.59;;;12.60;39.19
15670;BME280;18524;45.190;5.732;2023-02-12T16:13:20;100692.53;;;12.61;38.03
15670;BME280;18524;45.190;5.732;2023-02-12T16:18:26;100684.69;;;12.46;39.85
15670;BME280;18524;45.190;5.732;2023-02-12T16:23:16;100701.81;;;12.39;41.96
15670;BME280;18524;45.190;5.732;2023-02-12T16:28:28;100706.13;;;12.40;42.03
15670;BME280;18524;45.190;5.732;2023-02-12T16:33:34;100701.81;;;12.39;41.46
15670;BME280;18524;45.190;5.732;2023-02-12T16:43:32;100713.09;;;12.13;43.17
15670;BME280;18524;45.190;5.732;2023-02-12T16:48:23;100717.34;;;12.01;43.76
15670;BME280;18524;45.190;5.732;2023-02-12T16:53:33;100718.66;;;11.94;44.60
15670;BME280;18524;45.190;5.732;2023-02-12T16:58:25;100720.88;;;11.86;44.71
15670;BME280;18524;45.190;5.732;2023-02-12T17:03:16;100731.72;;;11.66;44.73
15670;BME280;18524;45.190;5.732;2023-02-12T17:08:18;100739.84;;;11.47;45.05
15670;BME280;18524;45.190;5.732;2023-02-12T17:13:09;100738.81;;;11.49;44.90
15670;BME280;18524;45.190;5.732;2023-02-12T17:17:59;100751.66;;;11.40;45.89
15670;BME280;18524;45.190;5.732;2023-02-12T17:22:53;100754.09;;;11.43;45.54
15670;BME280;18524;45.190;5.732;2023-02-12T17:27:44;100758.72;;;11.23;45.38
15670;BME280;18524;45.190;5.732;2023-02-12T17:32:35;100765.00;;;11.21;45.14
15670;BME280;18524;45.190;5.732;2023-02-12T17:37:25;100772.22;;;11.02;47.04
15670;BME280;18524;45.190;5.732;2023-02-12T17:42:16;100780.88;;;10.88;47.40
15670;BME280;18524;45.190;5.732;2023-02-12T17:47:06;100791.09;;;10.77;48.54
15670;BME280;18524;45.190;5.732;2023-02-12T17:51:56;100781.78;;;10.71;48.54
15670;BME280;18524;45.190;5.732;2023-02-12T17:56:47;100797.34;;;10.58;49.08
15670;BME280;18524;45.190;5.732;2023-02-12T18:01:37;100808.91;;;10.39;49.20
15670;BME280;18524;45.190;5.732;2023-02-12T18:06:30;100810.94;;;10.33;49.74
15670;BME280;18524;45.190;5.732;2023-02-12T18:11:20;100817.59;;;10.23;49.72
15670;BME280;18524;45.190;5.732;2023-02-12T18:16:11;100829.00;;;10.22;50.33
15670;BME280;18524;45.190;5.732;2023-02-12T18:21:06;100825.81;;;10.16;50.21
15670;BME280;18524;45.190;5.732;2023-02-12T18:25:57;100832.41;;;10.07;50.33
15670;BME280;18524;45.190;5.732;2023-02-12T18:30:55;100837.47;;;9.93;51.20
15670;BME280;18524;45.190;5.732;2023-02-12T18:35:59;100838.72;;;9.86;51.11
15670;BME280;18524;45.190;5.732;2023-02-12T18:40:49;100843.50;;;9.95;47.17
15670;BME280;18524;45.190;5.732;2023-02-12T18:45:40;100839.97;;;9.79;49.47
15670;BME280;18524;45.190;5.732;2023-02-12T18:50:30;100842.56;;;9.79;49.30
15670;BME280;18524;45.190;5.732;2023-02-12T18:55:21;100842.66;;;9.77;48.88
15670;BME280;18524;45.190;5.732;2023-02-12T19:00:11;100849.84;;;9.55;50.33
15670;BME280;18524;45.190;5.732;2023-02-12T19:05:02;100851.94;;;9.48;49.96
15670;BME280;18524;45.190;5.732;2023-02-12T19:09:52;100851.84;;;9.50;51.45
15670;BME280;18524;45.190;5.732;2023-02-12T19:14:43;100847.16;;;9.39;52.44
15670;BME280;18524;45.190;5.732;2023-02-12T19:19:33;100849.50;;;9.26;52.61
15670;BME280;18524;45.190;5.732;2023-02-12T19:24:23;100860.81;;;9.27;52.48
15670;BME280;18524;45.190;5.732;2023-02-12T19:29:14;100865.50;;;9.20;52.58
15670;BME280;18524;45.190;5.732;2023-02-12T19:34:06;100869.03;;;9.19;52.30
15670;BME280;18524;45.190;5.732;2023-02-12T19:38:57;100876.47;;;9.09;52.61
15670;BME280;18524;45.190;5.732;2023-02-12T19:43:55;100882.78;;;9.05;53.04
15670;BME280;18524;45.190;5.732;2023-02-12T19:48:47;100886.44;;;9.01;53.46
15670;BME280;18524;45.190;5.732;2023-02-12T19:53:38;100884.91;;;8.97;52.42
15670;BME280;18524;45.190;5.732;2023-02-12T19:58:29;100891.66;;;8.83;53.72
15670;BME280;18524;45.190;5.732;2023-02-12T20:03:20;100895.69;;;8.71;53.45
15670;BME280;18524;45.190;5.732;2023-02-12T20:08:12;100901.19;;;8.65;54.04
15670;BME280;18524;45.190;5.732;2023-02-12T20:13:02;100898.25;;;8.52;54.89
15670;BME280;18524;45.190;5.732;2023-02-12T20:17:53;100905.31;;;8.50;54.64
15670;BME280;18524;45.190;5.732;2023-02-12T20:22:43;100912.84;;;8.58;54.37
15670;BME280;18524;45.190;5.732;2023-02-12T20:27:33;100906.34;;;8.66;54.07
15670;BME280;18524;45.190;5.732;2023-02-12T20:32:24;100915.25;;;8.42;54.99
15670;BME280;18524;45.190;5.732;2023-02-12T20:37:14;100921.78;;;8.32;55.29
15670;BME280;18524;45.190;5.732;2023-02-12T20:42:06;100921.97;;;8.27;54.83
15670;BME280;18524;45.190;5.732;2023-02-12T20:46:56;100925.09;;;8.15;55.93
15670;BME280;18524;45.190;5.732;2023-02-12T20:51:48;100926.19;;;8.09;55.92
15670;BME280;18524;45.190;5.732;2023-02-12T20:56:39;100935.06;;;8.05;55.88
15670;BME280;18524;45.190;5.732;2023-02-12T21:01:35;100937.03;;;8.00;55.20
15670;BME280;18524;45.190;5.732;2023-02-12T21:06:26;100936.25;;;7.98;54.63
15670;BME280;18524;45.190;5.732;2023-02-12T21:11:21;100944.94;;;7.99;54.13
15670;BME280;18524;45.190;5.732;2023-02-12T21:16:24;100957.72;;;7.84;55.92
15670;BME280;18524;45.190;5.732;2023-02-12T21:21:20;100948.66;;;7.71;57.18
15670;BME280;18524;45.190;5.732;2023-02-12T21:26:15;100953.09;;;7.69;57.63
15670;BME280;18524;45.190;5.732;2023-02-12T21:31:13;100962.94;;;7.63;57.66
15670;BME280;18524;45.190;5.732;2023-02-12T21:36:06;100952.47;;;7.63;57.80
15670;BME280;18524;45.190;5.732;2023-02-12T21:41:08;100959.38;;;7.42;58.52
15670;BME280;18524;45.190;5.732;2023-02-12T21:45:58;100961.31;;;7.37;58.95
15670;BME280;18524;45.190;5.732;2023-02-12T21:50:49;100970.03;;;7.14;59.03
15670;BME280;18524;45.190;5.732;2023-02-12T21:55:39;100966.59;;;6.88;59.92
15670;BME280;18524;45.190;5.732;2023-02-12T22:00:30;100966.53;;;6.90;59.48
15670;BME280;18524;45.190;5.732;2023-02-12T22:05:20;100974.75;;;6.79;60.70
15670;BME280;18524;45.190;5.732;2023-02-12T22:10:10;100978.94;;;6.83;60.89
15670;BME280;18524;45.190;5.732;2023-02-12T22:15:01;100978.38;;;6.75;61.02
15670;BME280;18524;45.190;5.732;2023-02-12T22:19:51;100982.75;;;6.75;61.63
15670;BME280;18524;45.190;5.732;2023-02-12T22:24:42;100983.47;;;6.78;61.31
15670;BME280;18524;45.190;5.732;2023-02-12T22:29:32;100983.47;;;6.78;61.83
15670;BME280;18524;45.190;5.732;2023-02-12T22:34:22;100990.97;;;6.63;61.61
15670;BME280;18524;45.190;5.732;2023-02-12T22:39:13;100987.63;;;6.59;61.85
15670;BME280;18524;45.190;5.732;2023-02-12T22:44:04;100992.31;;;6.49;62.32
15670;BME280;18524;45.190;5.732;2023-02-12T22:48:54;100998.53;;;6.45;62.16
15670;BME280;18524;45.190;5.732;2023-02-12T22:53:45;101004.09;;;6.35;62.20
15670;BME280;18524;45.190;5.732;2023-02-12T22:58:36;101003.03;;;6.14;63.36
15670;BME280;18524;45.190;5.732;2023-02-12T23:03:28;101005.47;;;5.92;64.69
15670;BME280;18524;45.190;5.732;2023-02-12T23:08:18;101007.81;;;6.01;64.64
15670;BME280;18524;45.190;5.732;2023-02-12T23:13:08;101013.72;;;6.06;64.26
15670;BME280;18524;45.190;5.732;2023-02-12T23:17:59;101018.94;;;6.06;64.23
15670;BME280;18524;45.190;5.732;2023-02-12T23:22:49;101028.22;;;5.85;64.86
15670;BME280;18524;45.190;5.732;2023-02-12T23:27:39;101032.53;;;5.86;64.52
15670;BME280;18524;45.190;5.732;2023-02-12T23:32:30;101037.13;;;5.78;64.85
15670;BME280;18524;45.190;5.732;2023-02-12T23:37:20;101035.06;;;5.88;65.26
15670;BME280;18524;45.190;5.732;2023-02-12T23:42:10;101037.31;;;5.72;65.39
15670;BME280;18524;45.190;5.732;2023-02-12T23:47:01;101047.91;;;5.66;66.58
15670;BME280;18524;45.190;5.732;2023-02-12T23:51:51;101052.31;;;5.64;66.26
15670;BME280;18524;45.190;5.732;2023-02-12T23:56:41;101051.75;;;5.53;67.29
